<?xml version="1.0" encoding="UTF-8" standalone="no" ?><gpx xmlns="http://www.topografix.com/GPX/1/1" xmlns:gpxx="http://www.garmin.com/xmlschemas/GpxExtensions/v3" xmlns:wptx1="http://www.garmin.com/xmlschemas/WaypointExtension/v1" xmlns:gpxtpx="http://www.garmin.com/xmlschemas/TrackPointExtension/v1" creator="Dakota 20" version="1.1" xmlns:xsi="http://www.w3.org/2001/XMLSchema-instance" xsi:schemaLocation="http://www.topografix.com/GPX/1/1 http://www.topografix.com/GPX/1/1/gpx.xsd http://www.garmin.com/xmlschemas/GpxExtensions/v3 http://www8.garmin.com/xmlschemas/GpxExtensionsv3.xsd http://www.garmin.com/xmlschemas/WaypointExtension/v1 http://www8.garmin.com/xmlschemas/WaypointExtensionv1.xsd http://www.garmin.com/xmlschemas/TrackPointExtension/v1 http://www.garmin.com/xmlschemas/TrackPointExtensionv1.xsd"><metadata><link href="http://www.garmin.com"><text>Garmin International</text></link><time>2015-12-09T16:20:45Z</time></metadata><trk><name>Current Track: 09 DEC 2015 10:01</name><extensions><gpxx:TrackExtension><gpxx:DisplayColor>Cyan</gpxx:DisplayColor></gpxx:TrackExtension></extensions><trkseg><trkpt lat="51.7718197871" lon="-2.3641697690"><ele>7.35</ele><time>2015-12-09T10:01:29Z</time></trkpt><trkpt lat="51.7718195356" lon="-2.3641701043"><ele>7.35</ele><time>2015-12-09T10:01:30Z</time></trkpt><trkpt lat="51.7718210444" lon="-2.3641683441"><ele>15.04</ele><time>2015-12-09T10:01:38Z</time></trkpt><trkpt lat="51.7718210444" lon="-2.3641681764"><ele>8.79</ele><time>2015-12-09T10:01:39Z</time></trkpt><trkpt lat="51.7717948928" lon="-2.3640189786"><ele>8.79</ele><time>2015-12-09T10:01:56Z</time></trkpt><trkpt lat="51.7717390694" lon="-2.3639007937"><ele>8.79</ele><time>2015-12-09T10:02:11Z</time></trkpt><trkpt lat="51.7717238981" lon="-2.3638841975"><ele>8.31</ele><time>2015-12-09T10:02:27Z</time></trkpt><trkpt lat="51.7717288435" lon="-2.3638750613"><ele>8.79</ele><time>2015-12-09T10:02:45Z</time></trkpt><trkpt lat="51.7717425898" lon="-2.3638472334"><ele>8.79</ele><time>2015-12-09T10:03:03Z</time></trkpt><trkpt lat="51.7717325315" lon="-2.3637888953"><ele>9.27</ele><time>2015-12-09T10:03:20Z</time></trkpt><trkpt lat="51.7716846708" lon="-2.3637543619"><ele>8.79</ele><time>2015-12-09T10:03:35Z</time></trkpt><trkpt lat="51.7716202140" lon="-2.3637900688"><ele>8.79</ele><time>2015-12-09T10:03:43Z</time></trkpt><trkpt lat="51.7715331260" lon="-2.3638523463"><ele>9.27</ele><time>2015-12-09T10:03:50Z</time></trkpt><trkpt lat="51.7713981774" lon="-2.3639231734"><ele>8.79</ele><time>2015-12-09T10:04:06Z</time></trkpt><trkpt lat="51.7712110095" lon="-2.3638611473"><ele>8.79</ele><time>2015-12-09T10:04:23Z</time></trkpt><trkpt lat="51.7710393481" lon="-2.3637546971"><ele>9.27</ele><time>2015-12-09T10:04:40Z</time></trkpt><trkpt lat="51.7708445527" lon="-2.3636577185"><ele>8.79</ele><time>2015-12-09T10:05:00Z</time></trkpt><trkpt lat="51.7706844583" lon="-2.3638323974"><ele>9.75</ele><time>2015-12-09T10:05:17Z</time></trkpt><trkpt lat="51.7706726398" lon="-2.3638674337"><ele>9.27</ele><time>2015-12-09T10:05:35Z</time></trkpt><trkpt lat="51.7706710473" lon="-2.3638655059"><ele>9.27</ele><time>2015-12-09T10:05:56Z</time></trkpt><trkpt lat="51.7706719693" lon="-2.3638681043"><ele>9.27</ele><time>2015-12-09T10:06:17Z</time></trkpt><trkpt lat="51.7706724722" lon="-2.3638597224"><ele>8.79</ele><time>2015-12-09T10:06:42Z</time></trkpt><trkpt lat="51.7706721369" lon="-2.3638650030"><ele>7.83</ele><time>2015-12-09T10:07:05Z</time></trkpt><trkpt lat="51.7706354242" lon="-2.3638692778"><ele>8.79</ele><time>2015-12-09T10:07:20Z</time></trkpt><trkpt lat="51.7705259565" lon="-2.3638425395"><ele>7.83</ele><time>2015-12-09T10:07:38Z</time></trkpt><trkpt lat="51.7704482563" lon="-2.3637986183"><ele>8.79</ele><time>2015-12-09T10:07:45Z</time></trkpt><trkpt lat="51.7702054325" lon="-2.3638607282"><ele>8.31</ele><time>2015-12-09T10:08:03Z</time></trkpt><trkpt lat="51.7699833959" lon="-2.3639111035"><ele>8.79</ele><time>2015-12-09T10:08:22Z</time></trkpt><trkpt lat="51.7697734293" lon="-2.3639993649"><ele>8.79</ele><time>2015-12-09T10:08:39Z</time></trkpt><trkpt lat="51.7696113233" lon="-2.3641716968"><ele>8.79</ele><time>2015-12-09T10:08:55Z</time></trkpt><trkpt lat="51.7695020232" lon="-2.3642807454"><ele>8.79</ele><time>2015-12-09T10:09:06Z</time></trkpt><trkpt lat="51.7693590280" lon="-2.3644408397"><ele>8.79</ele><time>2015-12-09T10:09:22Z</time></trkpt><trkpt lat="51.7692176253" lon="-2.3645856790"><ele>9.27</ele><time>2015-12-09T10:09:38Z</time></trkpt><trkpt lat="51.7690670863" lon="-2.3647347093"><ele>8.79</ele><time>2015-12-09T10:09:54Z</time></trkpt><trkpt lat="51.7689105961" lon="-2.3648840748"><ele>8.79</ele><time>2015-12-09T10:10:12Z</time></trkpt><trkpt lat="51.7687318940" lon="-2.3650858272"><ele>9.27</ele><time>2015-12-09T10:10:33Z</time></trkpt><trkpt lat="51.7685711291" lon="-2.3652672954"><ele>8.79</ele><time>2015-12-09T10:10:51Z</time></trkpt><trkpt lat="51.7684099451" lon="-2.3653941136"><ele>9.27</ele><time>2015-12-09T10:11:07Z</time></trkpt><trkpt lat="51.7683351785" lon="-2.3654341791"><ele>9.27</ele><time>2015-12-09T10:11:20Z</time></trkpt><trkpt lat="51.7683037464" lon="-2.3654786870"><ele>9.27</ele><time>2015-12-09T10:11:38Z</time></trkpt><trkpt lat="51.7682310753" lon="-2.3655983806"><ele>9.27</ele><time>2015-12-09T10:11:53Z</time></trkpt><trkpt lat="51.7680625990" lon="-2.3657949362"><ele>8.31</ele><time>2015-12-09T10:12:16Z</time></trkpt><trkpt lat="51.7678795382" lon="-2.3659903184"><ele>8.31</ele><time>2015-12-09T10:12:38Z</time></trkpt><trkpt lat="51.7678313423" lon="-2.3660847824"><ele>8.31</ele><time>2015-12-09T10:13:00Z</time></trkpt><trkpt lat="51.7676998302" lon="-2.3661729600"><ele>8.79</ele><time>2015-12-09T10:13:21Z</time></trkpt><trkpt lat="51.7675464414" lon="-2.3663203139"><ele>8.79</ele><time>2015-12-09T10:13:39Z</time></trkpt><trkpt lat="51.7674053740" lon="-2.3665115889"><ele>8.31</ele><time>2015-12-09T10:13:55Z</time></trkpt><trkpt lat="51.7672197986" lon="-2.3667148501"><ele>8.79</ele><time>2015-12-09T10:14:14Z</time></trkpt><trkpt lat="51.7670586985" lon="-2.3669001739"><ele>8.31</ele><time>2015-12-09T10:14:32Z</time></trkpt><trkpt lat="51.7669550143" lon="-2.3671312630"><ele>8.31</ele><time>2015-12-09T10:14:48Z</time></trkpt><trkpt lat="51.7668125220" lon="-2.3674013279"><ele>8.79</ele><time>2015-12-09T10:15:06Z</time></trkpt><trkpt lat="51.7666659225" lon="-2.3677217681"><ele>8.79</ele><time>2015-12-09T10:15:26Z</time></trkpt><trkpt lat="51.7666714545" lon="-2.3677462433"><ele>8.79</ele><time>2015-12-09T10:15:38Z</time></trkpt><trkpt lat="51.7666681856" lon="-2.3677930143"><ele>8.79</ele><time>2015-12-09T10:15:41Z</time></trkpt><trkpt lat="51.7665349133" lon="-2.3680049088"><ele>8.31</ele><time>2015-12-09T10:15:59Z</time></trkpt><trkpt lat="51.7664348334" lon="-2.3681632429"><ele>8.79</ele><time>2015-12-09T10:16:18Z</time></trkpt><trkpt lat="51.7663402017" lon="-2.3683826812"><ele>8.31</ele><time>2015-12-09T10:16:35Z</time></trkpt><trkpt lat="51.7662928440" lon="-2.3685722798"><ele>7.83</ele><time>2015-12-09T10:16:52Z</time></trkpt><trkpt lat="51.7662370205" lon="-2.3687063064"><ele>8.79</ele><time>2015-12-09T10:17:07Z</time></trkpt><trkpt lat="51.7660677899" lon="-2.3688626289"><ele>9.27</ele><time>2015-12-09T10:17:25Z</time></trkpt><trkpt lat="51.7660023272" lon="-2.3689787183"><ele>8.79</ele><time>2015-12-09T10:17:43Z</time></trkpt><trkpt lat="51.7659648601" lon="-2.3690142576"><ele>8.31</ele><time>2015-12-09T10:18:01Z</time></trkpt><trkpt lat="51.7658435740" lon="-2.3691644613"><ele>8.31</ele><time>2015-12-09T10:18:18Z</time></trkpt><trkpt lat="51.7657583300" lon="-2.3692450952"><ele>7.83</ele><time>2015-12-09T10:18:34Z</time></trkpt><trkpt lat="51.7657298315" lon="-2.3692549858"><ele>8.31</ele><time>2015-12-09T10:18:51Z</time></trkpt><trkpt lat="51.7656790372" lon="-2.3692703247"><ele>8.79</ele><time>2015-12-09T10:19:08Z</time></trkpt><trkpt lat="51.7655739281" lon="-2.3693974782"><ele>7.83</ele><time>2015-12-09T10:19:22Z</time></trkpt><trkpt lat="51.7654662207" lon="-2.3694872484"><ele>8.31</ele><time>2015-12-09T10:19:40Z</time></trkpt><trkpt lat="51.7654416617" lon="-2.3695211951"><ele>7.83</ele><time>2015-12-09T10:19:43Z</time></trkpt><trkpt lat="51.7652714252" lon="-2.3696608376"><ele>8.31</ele><time>2015-12-09T10:19:59Z</time></trkpt><trkpt lat="51.7651292682" lon="-2.3697812855"><ele>7.35</ele><time>2015-12-09T10:20:17Z</time></trkpt><trkpt lat="51.7650567647" lon="-2.3699078523"><ele>8.31</ele><time>2015-12-09T10:20:31Z</time></trkpt><trkpt lat="51.7650536634" lon="-2.3699125461"><ele>7.83</ele><time>2015-12-09T10:20:50Z</time></trkpt><trkpt lat="51.7649494763" lon="-2.3699484207"><ele>7.83</ele><time>2015-12-09T10:21:07Z</time></trkpt><trkpt lat="51.7648317106" lon="-2.3699627537"><ele>8.31</ele><time>2015-12-09T10:21:24Z</time></trkpt><trkpt lat="51.7647359893" lon="-2.3699679505"><ele>7.35</ele><time>2015-12-09T10:21:39Z</time></trkpt><trkpt lat="51.7646252643" lon="-2.3699164018"><ele>8.31</ele><time>2015-12-09T10:21:52Z</time></trkpt><trkpt lat="51.7644883879" lon="-2.3699586466"><ele>8.31</ele><time>2015-12-09T10:22:08Z</time></trkpt><trkpt lat="51.7643648386" lon="-2.3700106982"><ele>7.83</ele><time>2015-12-09T10:22:23Z</time></trkpt><trkpt lat="51.7641972005" lon="-2.3700496741"><ele>7.83</ele><time>2015-12-09T10:22:40Z</time></trkpt><trkpt lat="51.7640647665" lon="-2.3700839560"><ele>8.31</ele><time>2015-12-09T10:22:54Z</time></trkpt><trkpt lat="51.7638831306" lon="-2.3701109458"><ele>9.27</ele><time>2015-12-09T10:23:10Z</time></trkpt><trkpt lat="51.7637004890" lon="-2.3700492550"><ele>8.31</ele><time>2015-12-09T10:23:29Z</time></trkpt><trkpt lat="51.7635063641" lon="-2.3700158950"><ele>8.31</ele><time>2015-12-09T10:23:47Z</time></trkpt><trkpt lat="51.7633239739" lon="-2.3699997179"><ele>8.31</ele><time>2015-12-09T10:24:04Z</time></trkpt><trkpt lat="51.7631575093" lon="-2.3700003047"><ele>8.31</ele><time>2015-12-09T10:24:20Z</time></trkpt><trkpt lat="51.7630371451" lon="-2.3699974548"><ele>8.31</ele><time>2015-12-09T10:24:37Z</time></trkpt><trkpt lat="51.7629143503" lon="-2.3699790984"><ele>8.79</ele><time>2015-12-09T10:24:52Z</time></trkpt><trkpt lat="51.7628675792" lon="-2.3699702974"><ele>8.79</ele><time>2015-12-09T10:25:01Z</time></trkpt><trkpt lat="51.7628248315" lon="-2.3699790146"><ele>8.31</ele><time>2015-12-09T10:25:05Z</time></trkpt><trkpt lat="51.7626552656" lon="-2.3699853010"><ele>8.79</ele><time>2015-12-09T10:25:23Z</time></trkpt><trkpt lat="51.7625350691" lon="-2.3700519372"><ele>8.79</ele><time>2015-12-09T10:25:38Z</time></trkpt><trkpt lat="51.7623477336" lon="-2.3701111972"><ele>8.79</ele><time>2015-12-09T10:25:59Z</time></trkpt><trkpt lat="51.7622499168" lon="-2.3701049946"><ele>8.31</ele><time>2015-12-09T10:26:14Z</time></trkpt><trkpt lat="51.7621745635" lon="-2.3700991273"><ele>8.31</ele><time>2015-12-09T10:26:30Z</time></trkpt><trkpt lat="51.7621475738" lon="-2.3701319844"><ele>9.27</ele><time>2015-12-09T10:26:43Z</time></trkpt><trkpt lat="51.7621166445" lon="-2.3701263685"><ele>8.31</ele><time>2015-12-09T10:27:10Z</time></trkpt><trkpt lat="51.7620554566" lon="-2.3701546155"><ele>8.79</ele><time>2015-12-09T10:27:26Z</time></trkpt><trkpt lat="51.7620406207" lon="-2.3701396957"><ele>8.79</ele><time>2015-12-09T10:27:35Z</time></trkpt><trkpt lat="51.7619037442" lon="-2.3700721376"><ele>8.31</ele><time>2015-12-09T10:27:50Z</time></trkpt><trkpt lat="51.7618831247" lon="-2.3700467404"><ele>8.79</ele><time>2015-12-09T10:28:11Z</time></trkpt><trkpt lat="51.7618347611" lon="-2.3700528592"><ele>8.31</ele><time>2015-12-09T10:28:32Z</time></trkpt><trkpt lat="51.7617695499" lon="-2.3700447287"><ele>8.79</ele><time>2015-12-09T10:28:47Z</time></trkpt><trkpt lat="51.7616849765" lon="-2.3700434715"><ele>8.31</ele><time>2015-12-09T10:29:03Z</time></trkpt><trkpt lat="51.7615380418" lon="-2.3700454831"><ele>8.79</ele><time>2015-12-09T10:29:19Z</time></trkpt><trkpt lat="51.7614155822" lon="-2.3700202536"><ele>8.31</ele><time>2015-12-09T10:29:36Z</time></trkpt><trkpt lat="51.7614113912" lon="-2.3700121231"><ele>8.79</ele><time>2015-12-09T10:29:56Z</time></trkpt><trkpt lat="51.7614223715" lon="-2.3700718861"><ele>9.27</ele><time>2015-12-09T10:30:25Z</time></trkpt><trkpt lat="51.7613973096" lon="-2.3699834570"><ele>9.27</ele><time>2015-12-09T10:30:48Z</time></trkpt><trkpt lat="51.7612341139" lon="-2.3700597323"><ele>9.27</ele><time>2015-12-09T10:31:07Z</time></trkpt><trkpt lat="51.7610215489" lon="-2.3701515980"><ele>9.27</ele><time>2015-12-09T10:31:24Z</time></trkpt><trkpt lat="51.7608721834" lon="-2.3702415358"><ele>9.27</ele><time>2015-12-09T10:31:39Z</time></trkpt><trkpt lat="51.7607430182" lon="-2.3702805117"><ele>9.27</ele><time>2015-12-09T10:31:52Z</time></trkpt><trkpt lat="51.7605662439" lon="-2.3703451362"><ele>9.27</ele><time>2015-12-09T10:32:09Z</time></trkpt><trkpt lat="51.7605271842" lon="-2.3703557812"><ele>9.27</ele><time>2015-12-09T10:32:12Z</time></trkpt><trkpt lat="51.7604167107" lon="-2.3704183102"><ele>10.23</ele><time>2015-12-09T10:32:29Z</time></trkpt><trkpt lat="51.7602276150" lon="-2.3704043124"><ele>9.75</ele><time>2015-12-09T10:32:46Z</time></trkpt><trkpt lat="51.7602067441" lon="-2.3704181425"><ele>10.23</ele><time>2015-12-09T10:32:48Z</time></trkpt><trkpt lat="51.7601022217" lon="-2.3703939188"><ele>8.79</ele><time>2015-12-09T10:32:55Z</time></trkpt><trkpt lat="51.7599438038" lon="-2.3704083357"><ele>9.27</ele><time>2015-12-09T10:33:07Z</time></trkpt><trkpt lat="51.7596857250" lon="-2.3704945855"><ele>9.27</ele><time>2015-12-09T10:33:28Z</time></trkpt><trkpt lat="51.7595842201" lon="-2.3704856168"><ele>8.31</ele><time>2015-12-09T10:33:45Z</time></trkpt><trkpt lat="51.7595838010" lon="-2.3704515863"><ele>8.79</ele><time>2015-12-09T10:34:02Z</time></trkpt><trkpt lat="51.7594894208" lon="-2.3703416158"><ele>7.35</ele><time>2015-12-09T10:34:16Z</time></trkpt><trkpt lat="51.7594248801" lon="-2.3703080043"><ele>8.31</ele><time>2015-12-09T10:34:21Z</time></trkpt><trkpt lat="51.7592571583" lon="-2.3701162264"><ele>8.31</ele><time>2015-12-09T10:34:38Z</time></trkpt><trkpt lat="51.7591326032" lon="-2.3699381109"><ele>8.79</ele><time>2015-12-09T10:34:54Z</time></trkpt><trkpt lat="51.7589675635" lon="-2.3697418068"><ele>8.31</ele><time>2015-12-09T10:35:10Z</time></trkpt><trkpt lat="51.7588867620" lon="-2.3695362825"><ele>9.27</ele><time>2015-12-09T10:35:26Z</time></trkpt><trkpt lat="51.7587797251" lon="-2.3692818079"><ele>8.79</ele><time>2015-12-09T10:35:47Z</time></trkpt><trkpt lat="51.7587343790" lon="-2.3691846617"><ele>8.79</ele><time>2015-12-09T10:36:07Z</time></trkpt><trkpt lat="51.7586640548" lon="-2.3689990863"><ele>9.75</ele><time>2015-12-09T10:36:25Z</time></trkpt><trkpt lat="51.7586117517" lon="-2.3688166123"><ele>9.75</ele><time>2015-12-09T10:36:43Z</time></trkpt><trkpt lat="51.7586140148" lon="-2.3686581943"><ele>9.27</ele><time>2015-12-09T10:37:01Z</time></trkpt><trkpt lat="51.7586410046" lon="-2.3686605413"><ele>9.27</ele><time>2015-12-09T10:37:19Z</time></trkpt><trkpt lat="51.7586874403" lon="-2.3686311208"><ele>9.27</ele><time>2015-12-09T10:37:35Z</time></trkpt><trkpt lat="51.7588394880" lon="-2.3685541749"><ele>9.75</ele><time>2015-12-09T10:37:53Z</time></trkpt><trkpt lat="51.7589982413" lon="-2.3684480600"><ele>9.75</ele><time>2015-12-09T10:38:10Z</time></trkpt><trkpt lat="51.7591448408" lon="-2.3682817630"><ele>9.75</ele><time>2015-12-09T10:38:29Z</time></trkpt><trkpt lat="51.7592439987" lon="-2.3681407794"><ele>9.27</ele><time>2015-12-09T10:38:47Z</time></trkpt><trkpt lat="51.7593076173" lon="-2.3680617381"><ele>8.79</ele><time>2015-12-09T10:39:04Z</time></trkpt><trkpt lat="51.7595076095" lon="-2.3679402843"><ele>9.75</ele><time>2015-12-09T10:39:22Z</time></trkpt><trkpt lat="51.7596493475" lon="-2.3677689582"><ele>8.31</ele><time>2015-12-09T10:39:43Z</time></trkpt><trkpt lat="51.7597810272" lon="-2.3675765935"><ele>9.75</ele><time>2015-12-09T10:40:02Z</time></trkpt><trkpt lat="51.7598596495" lon="-2.3674125597"><ele>9.27</ele><time>2015-12-09T10:40:20Z</time></trkpt><trkpt lat="51.7599679437" lon="-2.3672982305"><ele>9.27</ele><time>2015-12-09T10:40:36Z</time></trkpt><trkpt lat="51.7601440474" lon="-2.3672552314"><ele>9.27</ele><time>2015-12-09T10:40:54Z</time></trkpt><trkpt lat="51.7602798343" lon="-2.3671727534"><ele>8.79</ele><time>2015-12-09T10:41:14Z</time></trkpt><trkpt lat="51.7604976799" lon="-2.3670890182"><ele>8.79</ele><time>2015-12-09T10:41:34Z</time></trkpt><trkpt lat="51.7605540063" lon="-2.3670640402"><ele>8.31</ele><time>2015-12-09T10:41:51Z</time></trkpt><trkpt lat="51.7606314551" lon="-2.3670076299"><ele>8.79</ele><time>2015-12-09T10:42:10Z</time></trkpt><trkpt lat="51.7606896255" lon="-2.3670057859"><ele>8.79</ele><time>2015-12-09T10:42:29Z</time></trkpt><trkpt lat="51.7607498914" lon="-2.3669930454"><ele>8.31</ele><time>2015-12-09T10:42:45Z</time></trkpt><trkpt lat="51.7607227340" lon="-2.3670132458"><ele>8.31</ele><time>2015-12-09T10:43:08Z</time></trkpt><trkpt lat="51.7607397493" lon="-2.3670135811"><ele>8.31</ele><time>2015-12-09T10:43:29Z</time></trkpt><trkpt lat="51.7608355545" lon="-2.3669795506"><ele>8.31</ele><time>2015-12-09T10:43:44Z</time></trkpt><trkpt lat="51.7609305214" lon="-2.3668719269"><ele>8.31</ele><time>2015-12-09T10:44:04Z</time></trkpt><trkpt lat="51.7611891869" lon="-2.3667768762"><ele>7.83</ele><time>2015-12-09T10:44:23Z</time></trkpt><trkpt lat="51.7614217848" lon="-2.3666868545"><ele>8.31</ele><time>2015-12-09T10:44:39Z</time></trkpt><trkpt lat="51.7615931947" lon="-2.3666001018"><ele>7.35</ele><time>2015-12-09T10:44:58Z</time></trkpt><trkpt lat="51.7617736571" lon="-2.3665575217"><ele>7.35</ele><time>2015-12-09T10:45:17Z</time></trkpt><trkpt lat="51.7618319113" lon="-2.3665096611"><ele>7.83</ele><time>2015-12-09T10:45:38Z</time></trkpt><trkpt lat="51.7619555444" lon="-2.3665525764"><ele>7.83</ele><time>2015-12-09T10:45:54Z</time></trkpt><trkpt lat="51.7620871402" lon="-2.3665719386"><ele>7.83</ele><time>2015-12-09T10:46:06Z</time></trkpt><trkpt lat="51.7622633278" lon="-2.3665770516"><ele>7.83</ele><time>2015-12-09T10:46:23Z</time></trkpt><trkpt lat="51.7624278646" lon="-2.3665517382"><ele>7.83</ele><time>2015-12-09T10:46:39Z</time></trkpt><trkpt lat="51.7625746317" lon="-2.3665724415"><ele>8.31</ele><time>2015-12-09T10:46:57Z</time></trkpt><trkpt lat="51.7626012024" lon="-2.3666042928"><ele>7.35</ele><time>2015-12-09T10:47:18Z</time></trkpt><trkpt lat="51.7626442015" lon="-2.3665921390"><ele>7.35</ele><time>2015-12-09T10:47:39Z</time></trkpt><trkpt lat="51.7626488954" lon="-2.3665888701"><ele>7.83</ele><time>2015-12-09T10:48:02Z</time></trkpt><trkpt lat="51.7627172917" lon="-2.3665535823"><ele>7.35</ele><time>2015-12-09T10:48:19Z</time></trkpt><trkpt lat="51.7628495581" lon="-2.3664871138"><ele>7.35</ele><time>2015-12-09T10:48:34Z</time></trkpt><trkpt lat="51.7629696708" lon="-2.3663503211"><ele>7.35</ele><time>2015-12-09T10:48:52Z</time></trkpt><trkpt lat="51.7630001809" lon="-2.3663374968"><ele>7.83</ele><time>2015-12-09T10:48:56Z</time></trkpt><trkpt lat="51.7630642187" lon="-2.3662699386"><ele>7.83</ele><time>2015-12-09T10:49:12Z</time></trkpt><trkpt lat="51.7631745245" lon="-2.3661717027"><ele>7.35</ele><time>2015-12-09T10:49:27Z</time></trkpt><trkpt lat="51.7632883508" lon="-2.3660512548"><ele>7.35</ele><time>2015-12-09T10:49:42Z</time></trkpt><trkpt lat="51.7634480260" lon="-2.3658966087"><ele>7.35</ele><time>2015-12-09T10:50:00Z</time></trkpt><trkpt lat="51.7635755986" lon="-2.3658201657"><ele>7.83</ele><time>2015-12-09T10:50:17Z</time></trkpt><trkpt lat="51.7636027560" lon="-2.3658252787"><ele>6.39</ele><time>2015-12-09T10:50:37Z</time></trkpt><trkpt lat="51.7636040971" lon="-2.3658169806"><ele>7.35</ele><time>2015-12-09T10:50:54Z</time></trkpt><trkpt lat="51.7636118084" lon="-2.3658071738"><ele>7.35</ele><time>2015-12-09T10:51:12Z</time></trkpt><trkpt lat="51.7636100482" lon="-2.3658066709"><ele>7.83</ele><time>2015-12-09T10:51:16Z</time></trkpt><trkpt lat="51.7636523768" lon="-2.3657438066"><ele>6.87</ele><time>2015-12-09T10:51:23Z</time></trkpt><trkpt lat="51.7637040094" lon="-2.3656814452"><ele>7.35</ele><time>2015-12-09T10:51:38Z</time></trkpt><trkpt lat="51.7637377884" lon="-2.3656186648"><ele>6.87</ele><time>2015-12-09T10:51:45Z</time></trkpt><trkpt lat="51.7637847271" lon="-2.3654887453"><ele>6.87</ele><time>2015-12-09T10:51:55Z</time></trkpt><trkpt lat="51.7639021575" lon="-2.3652330134"><ele>7.83</ele><time>2015-12-09T10:52:12Z</time></trkpt><trkpt lat="51.7640076019" lon="-2.3649418261"><ele>7.83</ele><time>2015-12-09T10:52:28Z</time></trkpt><trkpt lat="51.7641128786" lon="-2.3646860104"><ele>8.31</ele><time>2015-12-09T10:52:45Z</time></trkpt><trkpt lat="51.7641148902" lon="-2.3646865971"><ele>7.83</ele><time>2015-12-09T10:53:06Z</time></trkpt><trkpt lat="51.7641086038" lon="-2.3646802269"><ele>7.83</ele><time>2015-12-09T10:53:37Z</time></trkpt><trkpt lat="51.7641497590" lon="-2.3645858467"><ele>7.83</ele><time>2015-12-09T10:53:45Z</time></trkpt><trkpt lat="51.7642189935" lon="-2.3642716091"><ele>7.83</ele><time>2015-12-09T10:54:04Z</time></trkpt><trkpt lat="51.7642712966" lon="-2.3640934099"><ele>8.31</ele><time>2015-12-09T10:54:16Z</time></trkpt><trkpt lat="51.7643509246" lon="-2.3638828564"><ele>8.79</ele><time>2015-12-09T10:54:29Z</time></trkpt><trkpt lat="51.7643687781" lon="-2.3637932539"><ele>9.27</ele><time>2015-12-09T10:54:35Z</time></trkpt><trkpt lat="51.7644411139" lon="-2.3635128792"><ele>8.79</ele><time>2015-12-09T10:54:56Z</time></trkpt><trkpt lat="51.7645385955" lon="-2.3633764219"><ele>9.27</ele><time>2015-12-09T10:55:13Z</time></trkpt><trkpt lat="51.7647713609" lon="-2.3632595781"><ele>9.27</ele><time>2015-12-09T10:55:36Z</time></trkpt><trkpt lat="51.7648149468" lon="-2.3632218596"><ele>9.27</ele><time>2015-12-09T10:55:53Z</time></trkpt><trkpt lat="51.7648581974" lon="-2.3631852306"><ele>9.75</ele><time>2015-12-09T10:56:11Z</time></trkpt><trkpt lat="51.7648799066" lon="-2.3632070236"><ele>8.79</ele><time>2015-12-09T10:56:33Z</time></trkpt><trkpt lat="51.7648990173" lon="-2.3632040061"><ele>10.23</ele><time>2015-12-09T10:56:56Z</time></trkpt><trkpt lat="51.7649002746" lon="-2.3631835543"><ele>8.79</ele><time>2015-12-09T10:56:58Z</time></trkpt><trkpt lat="51.7649055552" lon="-2.3630523775"><ele>9.27</ele><time>2015-12-09T10:57:14Z</time></trkpt><trkpt lat="51.7649015319" lon="-2.3629745096"><ele>9.27</ele><time>2015-12-09T10:57:18Z</time></trkpt><trkpt lat="51.7649101652" lon="-2.3627170175"><ele>9.27</ele><time>2015-12-09T10:57:35Z</time></trkpt><trkpt lat="51.7649193853" lon="-2.3626889382"><ele>8.31</ele><time>2015-12-09T10:57:56Z</time></trkpt><trkpt lat="51.7649032082" lon="-2.3627005052"><ele>8.31</ele><time>2015-12-09T10:58:16Z</time></trkpt><trkpt lat="51.7648973409" lon="-2.3627060372"><ele>8.31</ele><time>2015-12-09T10:58:35Z</time></trkpt><trkpt lat="51.7649135180" lon="-2.3627135810"><ele>8.31</ele><time>2015-12-09T10:58:56Z</time></trkpt><trkpt lat="51.7649203073" lon="-2.3627160117"><ele>9.27</ele><time>2015-12-09T10:59:22Z</time></trkpt><trkpt lat="51.7649290245" lon="-2.3627083004"><ele>8.79</ele><time>2015-12-09T10:59:45Z</time></trkpt><trkpt lat="51.7649119254" lon="-2.3626537342"><ele>8.79</ele><time>2015-12-09T11:00:04Z</time></trkpt><trkpt lat="51.7649307009" lon="-2.3626877647"><ele>8.79</ele><time>2015-12-09T11:00:27Z</time></trkpt><trkpt lat="51.7649058066" lon="-2.3626818974"><ele>8.79</ele><time>2015-12-09T11:00:48Z</time></trkpt><trkpt lat="51.7649289407" lon="-2.3626875132"><ele>8.79</ele><time>2015-12-09T11:01:18Z</time></trkpt><trkpt lat="51.7649384122" lon="-2.3626786284"><ele>9.27</ele><time>2015-12-09T11:01:48Z</time></trkpt><trkpt lat="51.7649534997" lon="-2.3626883514"><ele>9.27</ele><time>2015-12-09T11:02:06Z</time></trkpt><trkpt lat="51.7649088241" lon="-2.3627217952"><ele>8.79</ele><time>2015-12-09T11:02:24Z</time></trkpt><trkpt lat="51.7649114225" lon="-2.3627043609"><ele>7.35</ele><time>2015-12-09T11:02:44Z</time></trkpt><trkpt lat="51.7649367359" lon="-2.3626823165"><ele>9.27</ele><time>2015-12-09T11:03:04Z</time></trkpt><trkpt lat="51.7649538349" lon="-2.3626634572"><ele>9.27</ele><time>2015-12-09T11:03:28Z</time></trkpt><trkpt lat="51.7649528291" lon="-2.3626697436"><ele>9.75</ele><time>2015-12-09T11:03:56Z</time></trkpt><trkpt lat="51.7649535835" lon="-2.3626751918"><ele>9.27</ele><time>2015-12-09T11:04:25Z</time></trkpt><trkpt lat="51.7649568524" lon="-2.3626585957"><ele>8.79</ele><time>2015-12-09T11:04:54Z</time></trkpt><trkpt lat="51.7649612948" lon="-2.3626552429"><ele>9.75</ele><time>2015-12-09T11:05:24Z</time></trkpt><trkpt lat="51.7649633065" lon="-2.3626541533"><ele>9.75</ele><time>2015-12-09T11:05:48Z</time></trkpt><trkpt lat="51.7649735324" lon="-2.3626526445"><ele>9.75</ele><time>2015-12-09T11:06:18Z</time></trkpt><trkpt lat="51.7649788130" lon="-2.3626626190"><ele>9.27</ele><time>2015-12-09T11:06:45Z</time></trkpt><trkpt lat="51.7649734486" lon="-2.3626761977"><ele>9.75</ele><time>2015-12-09T11:07:08Z</time></trkpt><trkpt lat="51.7649825849" lon="-2.3626818974"><ele>9.75</ele><time>2015-12-09T11:07:38Z</time></trkpt><trkpt lat="51.7649250850" lon="-2.3627196997"><ele>9.27</ele><time>2015-12-09T11:07:54Z</time></trkpt><trkpt lat="51.7648623884" lon="-2.3627773672"><ele>9.27</ele><time>2015-12-09T11:08:13Z</time></trkpt><trkpt lat="51.7648647353" lon="-2.3627664708"><ele>9.75</ele><time>2015-12-09T11:08:43Z</time></trkpt><trkpt lat="51.7648633942" lon="-2.3627672251"><ele>9.75</ele><time>2015-12-09T11:09:16Z</time></trkpt><trkpt lat="51.7648581974" lon="-2.3627537303"><ele>9.75</ele><time>2015-12-09T11:09:47Z</time></trkpt><trkpt lat="51.7648641486" lon="-2.3627648782"><ele>9.75</ele><time>2015-12-09T11:10:04Z</time></trkpt><trkpt lat="51.7648705188" lon="-2.3627543170"><ele>9.27</ele><time>2015-12-09T11:10:20Z</time></trkpt><trkpt lat="51.7649865244" lon="-2.3629911896"><ele>9.75</ele><time>2015-12-09T11:10:38Z</time></trkpt><trkpt lat="51.7650773842" lon="-2.3631616775"><ele>9.75</ele><time>2015-12-09T11:10:52Z</time></trkpt><trkpt lat="51.7651006859" lon="-2.3632073589"><ele>8.79</ele><time>2015-12-09T11:10:55Z</time></trkpt><trkpt lat="51.7652757838" lon="-2.3633672018"><ele>9.75</ele><time>2015-12-09T11:11:13Z</time></trkpt><trkpt lat="51.7654374707" lon="-2.3635159805"><ele>9.75</ele><time>2015-12-09T11:11:31Z</time></trkpt><trkpt lat="51.7655227147" lon="-2.3636008892"><ele>10.23</ele><time>2015-12-09T11:11:45Z</time></trkpt><trkpt lat="51.7657119781" lon="-2.3637416214"><ele>9.27</ele><time>2015-12-09T11:12:05Z</time></trkpt><trkpt lat="51.7658802029" lon="-2.3638576269"><ele>9.75</ele><time>2015-12-09T11:12:21Z</time></trkpt><trkpt lat="51.7660403810" lon="-2.3639323935"><ele>9.75</ele><time>2015-12-09T11:12:36Z</time></trkpt><trkpt lat="51.7661423050" lon="-2.3640105128"><ele>9.27</ele><time>2015-12-09T11:12:46Z</time></trkpt><trkpt lat="51.7662485875" lon="-2.3639380932"><ele>9.75</ele><time>2015-12-09T11:13:02Z</time></trkpt><trkpt lat="51.7662702966" lon="-2.3638398573"><ele>9.75</ele><time>2015-12-09T11:13:19Z</time></trkpt><trkpt lat="51.7664109450" lon="-2.3637593072"><ele>9.75</ele><time>2015-12-09T11:13:36Z</time></trkpt><trkpt lat="51.7665733024" lon="-2.3637382686"><ele>9.27</ele><time>2015-12-09T11:13:53Z</time></trkpt><trkpt lat="51.7666681018" lon="-2.3637351673"><ele>8.79</ele><time>2015-12-09T11:14:09Z</time></trkpt><trkpt lat="51.7666813452" lon="-2.3637293000"><ele>8.79</ele><time>2015-12-09T11:14:15Z</time></trkpt><trkpt lat="51.7667159624" lon="-2.3637286294"><ele>9.27</ele><time>2015-12-09T11:14:20Z</time></trkpt><trkpt lat="51.7668609694" lon="-2.3637459800"><ele>9.75</ele><time>2015-12-09T11:14:36Z</time></trkpt><trkpt lat="51.7670347262" lon="-2.3637522664"><ele>9.75</ele><time>2015-12-09T11:14:52Z</time></trkpt><trkpt lat="51.7671633046" lon="-2.3637559544"><ele>10.23</ele><time>2015-12-09T11:15:06Z</time></trkpt><trkpt lat="51.7672978342" lon="-2.3637197446"><ele>9.75</ele><time>2015-12-09T11:15:22Z</time></trkpt><trkpt lat="51.7673963215" lon="-2.3636948504"><ele>10.71</ele><time>2015-12-09T11:15:36Z</time></trkpt><trkpt lat="51.7675119918" lon="-2.3636706267"><ele>10.23</ele><time>2015-12-09T11:15:50Z</time></trkpt><trkpt lat="51.7676275782" lon="-2.3636391107"><ele>10.71</ele><time>2015-12-09T11:16:04Z</time></trkpt><trkpt lat="51.7678529676" lon="-2.3635676969"><ele>10.71</ele><time>2015-12-09T11:16:28Z</time></trkpt><trkpt lat="51.7679642793" lon="-2.3634043336"><ele>10.71</ele><time>2015-12-09T11:16:45Z</time></trkpt><trkpt lat="51.7680621799" lon="-2.3632773478"><ele>10.71</ele><time>2015-12-09T11:17:00Z</time></trkpt><trkpt lat="51.7681755871" lon="-2.3631478474"><ele>10.23</ele><time>2015-12-09T11:17:17Z</time></trkpt><trkpt lat="51.7682366073" lon="-2.3631137330"><ele>10.71</ele><time>2015-12-09T11:17:31Z</time></trkpt><trkpt lat="51.7682600766" lon="-2.3630986456"><ele>10.71</ele><time>2015-12-09T11:17:47Z</time></trkpt><trkpt lat="51.7683630064" lon="-2.3630751763"><ele>10.71</ele><time>2015-12-09T11:18:06Z</time></trkpt><trkpt lat="51.7683626711" lon="-2.3630758468"><ele>10.23</ele><time>2015-12-09T11:18:32Z</time></trkpt><trkpt lat="51.7683697119" lon="-2.3630932812"><ele>11.67</ele><time>2015-12-09T11:18:55Z</time></trkpt><trkpt lat="51.7684044968" lon="-2.3630702309"><ele>10.23</ele><time>2015-12-09T11:19:15Z</time></trkpt><trkpt lat="51.7684801854" lon="-2.3629956320"><ele>11.19</ele><time>2015-12-09T11:19:29Z</time></trkpt><trkpt lat="51.7685075942" lon="-2.3629740905"><ele>10.71</ele><time>2015-12-09T11:19:49Z</time></trkpt><trkpt lat="51.7685904913" lon="-2.3629276548"><ele>11.19</ele><time>2015-12-09T11:20:05Z</time></trkpt><trkpt lat="51.7686062492" lon="-2.3629336897"><ele>11.67</ele><time>2015-12-09T11:20:30Z</time></trkpt><trkpt lat="51.7687702831" lon="-2.3630370386"><ele>11.19</ele><time>2015-12-09T11:20:47Z</time></trkpt><trkpt lat="51.7688514199" lon="-2.3629418202"><ele>10.23</ele><time>2015-12-09T11:21:03Z</time></trkpt><trkpt lat="51.7688021343" lon="-2.3626990803"><ele>10.71</ele><time>2015-12-09T11:21:19Z</time></trkpt><trkpt lat="51.7687668465" lon="-2.3624354694"><ele>10.71</ele><time>2015-12-09T11:21:32Z</time></trkpt><trkpt lat="51.7687267810" lon="-2.3621605430"><ele>11.19</ele><time>2015-12-09T11:21:47Z</time></trkpt><trkpt lat="51.7687293794" lon="-2.3620637320"><ele>11.19</ele><time>2015-12-09T11:21:53Z</time></trkpt><trkpt lat="51.7687167227" lon="-2.3617784120"><ele>11.19</ele><time>2015-12-09T11:22:10Z</time></trkpt><trkpt lat="51.7686860450" lon="-2.3615345825"><ele>11.19</ele><time>2015-12-09T11:22:23Z</time></trkpt><trkpt lat="51.7686738074" lon="-2.3614039086"><ele>11.19</ele><time>2015-12-09T11:22:32Z</time></trkpt><trkpt lat="51.7686759029" lon="-2.3613442294"><ele>10.71</ele><time>2015-12-09T11:22:36Z</time></trkpt><trkpt lat="51.7686704546" lon="-2.3612701334"><ele>10.71</ele><time>2015-12-09T11:22:41Z</time></trkpt><trkpt lat="51.7686603125" lon="-2.3609817121"><ele>11.19</ele><time>2015-12-09T11:22:58Z</time></trkpt><trkpt lat="51.7686392739" lon="-2.3608347774"><ele>10.71</ele><time>2015-12-09T11:23:07Z</time></trkpt><trkpt lat="51.7686070874" lon="-2.3605797999"><ele>11.19</ele><time>2015-12-09T11:23:25Z</time></trkpt><trkpt lat="51.7685847078" lon="-2.3603600264"><ele>11.19</ele><time>2015-12-09T11:23:41Z</time></trkpt><trkpt lat="51.7685750686" lon="-2.3601793125"><ele>11.19</ele><time>2015-12-09T11:23:55Z</time></trkpt><trkpt lat="51.7685691174" lon="-2.3601071443"><ele>11.19</ele><time>2015-12-09T11:24:00Z</time></trkpt><trkpt lat="51.7685246933" lon="-2.3598538432"><ele>11.67</ele><time>2015-12-09T11:24:17Z</time></trkpt><trkpt lat="51.7684577219" lon="-2.3596154619"><ele>11.67</ele><time>2015-12-09T11:24:32Z</time></trkpt><trkpt lat="51.7684531119" lon="-2.3595984466"><ele>11.67</ele><time>2015-12-09T11:24:33Z</time></trkpt><trkpt lat="51.7683999706" lon="-2.3594935890"><ele>11.19</ele><time>2015-12-09T11:24:49Z</time></trkpt><trkpt lat="51.7683844641" lon="-2.3594927508"><ele>11.67</ele><time>2015-12-09T11:25:12Z</time></trkpt><trkpt lat="51.7683995515" lon="-2.3595252726"><ele>11.19</ele><time>2015-12-09T11:25:32Z</time></trkpt><trkpt lat="51.7684184946" lon="-2.3596122768"><ele>10.71</ele><time>2015-12-09T11:25:52Z</time></trkpt><trkpt lat="51.7683577258" lon="-2.3596725427"><ele>11.19</ele><time>2015-12-09T11:26:04Z</time></trkpt><trkpt lat="51.7683418840" lon="-2.3596761469"><ele>11.67</ele><time>2015-12-09T11:26:29Z</time></trkpt><trkpt lat="51.7682559695" lon="-2.3596999515"><ele>11.19</ele><time>2015-12-09T11:26:47Z</time></trkpt><trkpt lat="51.7682424746" lon="-2.3597256001"><ele>10.71</ele><time>2015-12-09T11:27:05Z</time></trkpt><trkpt lat="51.7682433128" lon="-2.3597270250"><ele>11.19</ele><time>2015-12-09T11:27:34Z</time></trkpt><trkpt lat="51.7682535388" lon="-2.3597101774"><ele>11.19</ele><time>2015-12-09T11:27:57Z</time></trkpt><trkpt lat="51.7682254594" lon="-2.3598296195"><ele>10.71</ele><time>2015-12-09T11:28:12Z</time></trkpt><trkpt lat="51.7681954522" lon="-2.3598906398"><ele>11.19</ele><time>2015-12-09T11:28:17Z</time></trkpt><trkpt lat="51.7680460028" lon="-2.3600981757"><ele>10.23</ele><time>2015-12-09T11:28:35Z</time></trkpt><trkpt lat="51.7679834738" lon="-2.3601845931"><ele>10.71</ele><time>2015-12-09T11:28:43Z</time></trkpt><trkpt lat="51.7679406423" lon="-2.3602498043"><ele>10.71</ele><time>2015-12-09T11:28:48Z</time></trkpt><trkpt lat="51.7677952163" lon="-2.3604187835"><ele>10.23</ele><time>2015-12-09T11:29:03Z</time></trkpt><trkpt lat="51.7677123193" lon="-2.3605184443"><ele>11.19</ele><time>2015-12-09T11:29:16Z</time></trkpt><trkpt lat="51.7676985729" lon="-2.3605424166"><ele>9.75</ele><time>2015-12-09T11:29:18Z</time></trkpt><trkpt lat="51.7676097248" lon="-2.3606774490"><ele>10.71</ele><time>2015-12-09T11:29:35Z</time></trkpt><trkpt lat="51.7675825674" lon="-2.3607024271"><ele>10.71</ele><time>2015-12-09T11:29:54Z</time></trkpt><trkpt lat="51.7674997542" lon="-2.3608382139"><ele>10.23</ele><time>2015-12-09T11:30:09Z</time></trkpt><trkpt lat="51.7674702499" lon="-2.3609445803"><ele>11.19</ele><time>2015-12-09T11:30:17Z</time></trkpt><trkpt lat="51.7674044520" lon="-2.3611277249"><ele>8.31</ele><time>2015-12-09T11:30:30Z</time></trkpt><trkpt lat="51.7674028594" lon="-2.3611549661"><ele>11.19</ele><time>2015-12-09T11:30:32Z</time></trkpt><trkpt lat="51.7673864309" lon="-2.3613187484"><ele>10.23</ele><time>2015-12-09T11:30:43Z</time></trkpt><trkpt lat="51.7673837487" lon="-2.3615794256"><ele>8.79</ele><time>2015-12-09T11:30:59Z</time></trkpt><trkpt lat="51.7673828267" lon="-2.3616199940"><ele>10.71</ele><time>2015-12-09T11:31:20Z</time></trkpt><trkpt lat="51.7673739418" lon="-2.3616717942"><ele>8.79</ele><time>2015-12-09T11:31:27Z</time></trkpt><trkpt lat="51.7673399113" lon="-2.3619312141"><ele>9.75</ele><time>2015-12-09T11:31:44Z</time></trkpt><trkpt lat="51.7673205491" lon="-2.3621950764"><ele>10.23</ele><time>2015-12-09T11:32:01Z</time></trkpt><trkpt lat="51.7673144303" lon="-2.3622221500"><ele>10.23</ele><time>2015-12-09T11:32:09Z</time></trkpt><trkpt lat="51.7673151009" lon="-2.3623989243"><ele>10.23</ele><time>2015-12-09T11:32:28Z</time></trkpt><trkpt lat="51.7673220579" lon="-2.3625875171"><ele>11.19</ele><time>2015-12-09T11:32:40Z</time></trkpt><trkpt lat="51.7673306074" lon="-2.3628428299"><ele>9.27</ele><time>2015-12-09T11:32:57Z</time></trkpt><trkpt lat="51.7673163582" lon="-2.3629989848"><ele>11.19</ele><time>2015-12-09T11:33:04Z</time></trkpt><trkpt lat="51.7673023604" lon="-2.3630499467"><ele>10.23</ele><time>2015-12-09T11:33:07Z</time></trkpt><trkpt lat="51.7672975827" lon="-2.3633230291"><ele>9.75</ele><time>2015-12-09T11:33:24Z</time></trkpt><trkpt lat="51.7672702577" lon="-2.3636184912"><ele>8.79</ele><time>2015-12-09T11:33:42Z</time></trkpt><trkpt lat="51.7672680784" lon="-2.3638546094"><ele>10.23</ele><time>2015-12-09T11:33:58Z</time></trkpt><trkpt lat="51.7672580201" lon="-2.3642217368"><ele>11.19</ele><time>2015-12-09T11:34:16Z</time></trkpt><trkpt lat="51.7672601156" lon="-2.3642579466"><ele>10.71</ele><time>2015-12-09T11:34:18Z</time></trkpt><trkpt lat="51.7672733590" lon="-2.3644892033"><ele>9.27</ele><time>2015-12-09T11:34:32Z</time></trkpt><trkpt lat="51.7672647256" lon="-2.3647251539"><ele>9.75</ele><time>2015-12-09T11:34:48Z</time></trkpt><trkpt lat="51.7672848422" lon="-2.3649891000"><ele>9.75</ele><time>2015-12-09T11:35:04Z</time></trkpt><trkpt lat="51.7673086468" lon="-2.3649279959"><ele>10.23</ele><time>2015-12-09T11:35:22Z</time></trkpt><trkpt lat="51.7674405780" lon="-2.3648679815"><ele>10.23</ele><time>2015-12-09T11:35:41Z</time></trkpt><trkpt lat="51.7674410809" lon="-2.3648433387"><ele>11.67</ele><time>2015-12-09T11:36:13Z</time></trkpt><trkpt lat="51.7673865985" lon="-2.3647948913"><ele>10.23</ele><time>2015-12-09T11:36:19Z</time></trkpt><trkpt lat="51.7672626302" lon="-2.3646114953"><ele>10.23</ele><time>2015-12-09T11:36:33Z</time></trkpt><trkpt lat="51.7670758814" lon="-2.3644316196"><ele>11.19</ele><time>2015-12-09T11:36:51Z</time></trkpt><trkpt lat="51.7670213990" lon="-2.3643703479"><ele>11.19</ele><time>2015-12-09T11:36:56Z</time></trkpt><trkpt lat="51.7668661661" lon="-2.3641815037"><ele>11.19</ele><time>2015-12-09T11:37:13Z</time></trkpt><trkpt lat="51.7667225003" lon="-2.3639954254"><ele>10.71</ele><time>2015-12-09T11:37:28Z</time></trkpt><trkpt lat="51.7666359153" lon="-2.3638702836"><ele>11.19</ele><time>2015-12-09T11:37:43Z</time></trkpt><trkpt lat="51.7665800918" lon="-2.3638142087"><ele>10.23</ele><time>2015-12-09T11:37:55Z</time></trkpt><trkpt lat="51.7664557043" lon="-2.3636847083"><ele>10.71</ele><time>2015-12-09T11:38:09Z</time></trkpt><trkpt lat="51.7663129605" lon="-2.3638101853"><ele>10.71</ele><time>2015-12-09T11:38:23Z</time></trkpt><trkpt lat="51.7662252858" lon="-2.3639324773"><ele>11.19</ele><time>2015-12-09T11:38:37Z</time></trkpt><trkpt lat="51.7662722245" lon="-2.3641257640"><ele>10.71</ele><time>2015-12-09T11:38:53Z</time></trkpt><trkpt lat="51.7663895711" lon="-2.3643146083"><ele>10.23</ele><time>2015-12-09T11:39:11Z</time></trkpt><trkpt lat="51.7664422095" lon="-2.3644512333"><ele>9.75</ele><time>2015-12-09T11:39:26Z</time></trkpt><trkpt lat="51.7665229272" lon="-2.3646131717"><ele>10.23</ele><time>2015-12-09T11:39:41Z</time></trkpt><trkpt lat="51.7665530182" lon="-2.3646806460"><ele>10.23</ele><time>2015-12-09T11:39:46Z</time></trkpt><trkpt lat="51.7666824348" lon="-2.3648655508"><ele>10.23</ele><time>2015-12-09T11:40:04Z</time></trkpt><trkpt lat="51.7667929921" lon="-2.3650573287"><ele>10.71</ele><time>2015-12-09T11:40:22Z</time></trkpt><trkpt lat="51.7669015378" lon="-2.3652771860"><ele>9.75</ele><time>2015-12-09T11:40:42Z</time></trkpt><trkpt lat="51.7669504881" lon="-2.3653061874"><ele>10.23</ele><time>2015-12-09T11:41:01Z</time></trkpt><trkpt lat="51.7669808306" lon="-2.3652555607"><ele>10.71</ele><time>2015-12-09T11:41:16Z</time></trkpt><trkpt lat="51.7669984326" lon="-2.3652910162"><ele>10.23</ele><time>2015-12-09T11:41:39Z</time></trkpt><trkpt lat="51.7671186291" lon="-2.3654615041"><ele>10.23</ele><time>2015-12-09T11:41:56Z</time></trkpt><trkpt lat="51.7672397476" lon="-2.3656045832"><ele>10.23</ele><time>2015-12-09T11:42:15Z</time></trkpt><trkpt lat="51.7672925536" lon="-2.3657783400"><ele>9.75</ele><time>2015-12-09T11:42:29Z</time></trkpt><trkpt lat="51.7673784681" lon="-2.3659683578"><ele>8.31</ele><time>2015-12-09T11:42:44Z</time></trkpt><trkpt lat="51.7673999257" lon="-2.3660537694"><ele>10.71</ele><time>2015-12-09T11:42:49Z</time></trkpt><trkpt lat="51.7674822360" lon="-2.3662276939"><ele>10.23</ele><time>2015-12-09T11:43:04Z</time></trkpt><trkpt lat="51.7675038613" lon="-2.3662592936"><ele>9.75</ele><time>2015-12-09T11:43:07Z</time></trkpt><trkpt lat="51.7675258219" lon="-2.3663569428"><ele>9.75</ele><time>2015-12-09T11:43:15Z</time></trkpt><trkpt lat="51.7675138358" lon="-2.3664006125"><ele>9.75</ele><time>2015-12-09T11:43:17Z</time></trkpt><trkpt lat="51.7674843315" lon="-2.3666540813"><ele>7.83</ele><time>2015-12-09T11:43:31Z</time></trkpt><trkpt lat="51.7674392369" lon="-2.3669160996"><ele>8.79</ele><time>2015-12-09T11:43:49Z</time></trkpt><trkpt lat="51.7674376443" lon="-2.3669305164"><ele>9.27</ele><time>2015-12-09T11:43:53Z</time></trkpt><trkpt lat="51.7674326152" lon="-2.3669656366"><ele>8.79</ele><time>2015-12-09T11:43:56Z</time></trkpt><trkpt lat="51.7674062960" lon="-2.3670510482"><ele>8.31</ele><time>2015-12-09T11:44:01Z</time></trkpt><trkpt lat="51.7673952319" lon="-2.3671599291"><ele>8.79</ele><time>2015-12-09T11:44:08Z</time></trkpt><trkpt lat="51.7673801444" lon="-2.3672714923"><ele>9.27</ele><time>2015-12-09T11:44:15Z</time></trkpt><trkpt lat="51.7673826590" lon="-2.3674494401"><ele>8.79</ele><time>2015-12-09T11:44:29Z</time></trkpt><trkpt lat="51.7674034461" lon="-2.3675244581"><ele>9.27</ele><time>2015-12-09T11:44:45Z</time></trkpt><trkpt lat="51.7673337087" lon="-2.3675836343"><ele>8.79</ele><time>2015-12-09T11:44:53Z</time></trkpt><trkpt lat="51.7671862710" lon="-2.3677172419"><ele>8.79</ele><time>2015-12-09T11:45:09Z</time></trkpt><trkpt lat="51.7670933995" lon="-2.3678077664"><ele>9.27</ele><time>2015-12-09T11:45:21Z</time></trkpt><trkpt lat="51.7670247518" lon="-2.3679246102"><ele>9.75</ele><time>2015-12-09T11:45:33Z</time></trkpt><trkpt lat="51.7669299524" lon="-2.3681000434"><ele>9.75</ele><time>2015-12-09T11:45:47Z</time></trkpt><trkpt lat="51.7668337282" lon="-2.3681764863"><ele>9.27</ele><time>2015-12-09T11:46:01Z</time></trkpt><trkpt lat="51.7667355761" lon="-2.3682597186"><ele>9.75</ele><time>2015-12-09T11:46:16Z</time></trkpt><trkpt lat="51.7666520085" lon="-2.3683329765"><ele>8.79</ele><time>2015-12-09T11:46:32Z</time></trkpt><trkpt lat="51.7665354162" lon="-2.3684260994"><ele>8.79</ele><time>2015-12-09T11:46:47Z</time></trkpt><trkpt lat="51.7665267829" lon="-2.3684352357"><ele>7.83</ele><time>2015-12-09T11:46:48Z</time></trkpt><trkpt lat="51.7663843744" lon="-2.3685146123"><ele>8.31</ele><time>2015-12-09T11:47:02Z</time></trkpt><trkpt lat="51.7663719691" lon="-2.3685317952"><ele>9.27</ele><time>2015-12-09T11:47:16Z</time></trkpt><trkpt lat="51.7663553730" lon="-2.3685456254"><ele>9.27</ele><time>2015-12-09T11:47:43Z</time></trkpt><trkpt lat="51.7662798520" lon="-2.3686600383"><ele>8.31</ele><time>2015-12-09T11:47:54Z</time></trkpt><trkpt lat="51.7661643494" lon="-2.3688234854"><ele>8.31</ele><time>2015-12-09T11:48:09Z</time></trkpt><trkpt lat="51.7660577316" lon="-2.3689420056"><ele>8.79</ele><time>2015-12-09T11:48:23Z</time></trkpt><trkpt lat="51.7660543788" lon="-2.3689571768"><ele>8.79</ele><time>2015-12-09T11:48:24Z</time></trkpt><trkpt lat="51.7659413069" lon="-2.3690967355"><ele>9.27</ele><time>2015-12-09T11:48:41Z</time></trkpt><trkpt lat="51.7658501118" lon="-2.3692453466"><ele>9.27</ele><time>2015-12-09T11:48:53Z</time></trkpt><trkpt lat="51.7657809611" lon="-2.3692795448"><ele>9.75</ele><time>2015-12-09T11:49:01Z</time></trkpt><trkpt lat="51.7657661252" lon="-2.3693051934"><ele>7.83</ele><time>2015-12-09T11:49:04Z</time></trkpt><trkpt lat="51.7656441685" lon="-2.3694322631"><ele>8.79</ele><time>2015-12-09T11:49:19Z</time></trkpt><trkpt lat="51.7655147519" lon="-2.3695346899"><ele>8.79</ele><time>2015-12-09T11:49:32Z</time></trkpt><trkpt lat="51.7654580902" lon="-2.3696070258"><ele>8.79</ele><time>2015-12-09T11:49:39Z</time></trkpt><trkpt lat="51.7653786298" lon="-2.3696879949"><ele>8.79</ele><time>2015-12-09T11:49:48Z</time></trkpt><trkpt lat="51.7653156817" lon="-2.3697296530"><ele>8.31</ele><time>2015-12-09T11:49:54Z</time></trkpt><trkpt lat="51.7651252449" lon="-2.3698591534"><ele>8.31</ele><time>2015-12-09T11:50:10Z</time></trkpt><trkpt lat="51.7651230656" lon="-2.3699003085"><ele>8.79</ele><time>2015-12-09T11:50:13Z</time></trkpt><trkpt lat="51.7651457805" lon="-2.3700049147"><ele>8.79</ele><time>2015-12-09T11:50:31Z</time></trkpt><trkpt lat="51.7652022745" lon="-2.3700953554"><ele>9.75</ele><time>2015-12-09T11:50:58Z</time></trkpt><trkpt lat="51.7652637977" lon="-2.3702619039"><ele>8.79</ele><time>2015-12-09T11:51:12Z</time></trkpt><trkpt lat="51.7653422523" lon="-2.3704200704"><ele>7.83</ele><time>2015-12-09T11:51:26Z</time></trkpt><trkpt lat="51.7653974891" lon="-2.3706150334"><ele>8.31</ele><time>2015-12-09T11:51:40Z</time></trkpt><trkpt lat="51.7654525582" lon="-2.3707513232"><ele>8.31</ele><time>2015-12-09T11:51:55Z</time></trkpt><trkpt lat="51.7655081302" lon="-2.3709105793"><ele>8.31</ele><time>2015-12-09T11:52:08Z</time></trkpt><trkpt lat="51.7655808851" lon="-2.3709582724"><ele>9.27</ele><time>2015-12-09T11:52:22Z</time></trkpt><trkpt lat="51.7655914463" lon="-2.3709353898"><ele>8.31</ele><time>2015-12-09T11:52:39Z</time></trkpt><trkpt lat="51.7655082140" lon="-2.3709222302"><ele>8.79</ele><time>2015-12-09T11:52:51Z</time></trkpt><trkpt lat="51.7654553242" lon="-2.3707952444"><ele>8.31</ele><time>2015-12-09T11:53:02Z</time></trkpt><trkpt lat="51.7653436773" lon="-2.3704722058"><ele>9.27</ele><time>2015-12-09T11:53:23Z</time></trkpt><trkpt lat="51.7652797233" lon="-2.3702934198"><ele>9.27</ele><time>2015-12-09T11:53:36Z</time></trkpt><trkpt lat="51.7651949823" lon="-2.3700811900"><ele>8.31</ele><time>2015-12-09T11:53:52Z</time></trkpt><trkpt lat="51.7651093192" lon="-2.3698857240"><ele>9.27</ele><time>2015-12-09T11:54:07Z</time></trkpt><trkpt lat="51.7652371433" lon="-2.3697258811"><ele>9.27</ele><time>2015-12-09T11:54:22Z</time></trkpt><trkpt lat="51.7653958127" lon="-2.3696267232"><ele>8.79</ele><time>2015-12-09T11:54:38Z</time></trkpt><trkpt lat="51.7655267380" lon="-2.3694906849"><ele>9.27</ele><time>2015-12-09T11:54:55Z</time></trkpt><trkpt lat="51.7656720802" lon="-2.3693636153"><ele>9.27</ele><time>2015-12-09T11:55:15Z</time></trkpt><trkpt lat="51.7657846492" lon="-2.3692911118"><ele>8.79</ele><time>2015-12-09T11:55:29Z</time></trkpt><trkpt lat="51.7658626847" lon="-2.3691551574"><ele>8.79</ele><time>2015-12-09T11:55:41Z</time></trkpt><trkpt lat="51.7659677099" lon="-2.3689998407"><ele>9.27</ele><time>2015-12-09T11:55:57Z</time></trkpt><trkpt lat="51.7660505231" lon="-2.3688481282"><ele>9.27</ele><time>2015-12-09T11:56:13Z</time></trkpt><trkpt lat="51.7662543710" lon="-2.3687258363"><ele>8.79</ele><time>2015-12-09T11:56:28Z</time></trkpt><trkpt lat="51.7664158903" lon="-2.3685024586"><ele>9.27</ele><time>2015-12-09T11:56:46Z</time></trkpt><trkpt lat="51.7665995378" lon="-2.3683692701"><ele>9.27</ele><time>2015-12-09T11:57:04Z</time></trkpt><trkpt lat="51.7667881306" lon="-2.3682283703"><ele>8.79</ele><time>2015-12-09T11:57:23Z</time></trkpt><trkpt lat="51.7668946646" lon="-2.3680760711"><ele>8.31</ele><time>2015-12-09T11:57:38Z</time></trkpt><trkpt lat="51.7670480534" lon="-2.3678679485"><ele>8.79</ele><time>2015-12-09T11:57:55Z</time></trkpt><trkpt lat="51.7670573574" lon="-2.3678345047"><ele>9.27</ele><time>2015-12-09T11:57:58Z</time></trkpt><trkpt lat="51.7670842633" lon="-2.3677718081"><ele>8.79</ele><time>2015-12-09T11:58:02Z</time></trkpt><trkpt lat="51.7672737781" lon="-2.3676387873"><ele>9.75</ele><time>2015-12-09T11:58:20Z</time></trkpt><trkpt lat="51.7674136721" lon="-2.3675630149"><ele>9.27</ele><time>2015-12-09T11:58:34Z</time></trkpt><trkpt lat="51.7675344553" lon="-2.3674988933"><ele>9.75</ele><time>2015-12-09T11:58:46Z</time></trkpt><trkpt lat="51.7676175199" lon="-2.3673928622"><ele>8.79</ele><time>2015-12-09T11:59:03Z</time></trkpt><trkpt lat="51.7676047795" lon="-2.3673617654"><ele>8.79</ele><time>2015-12-09T11:59:17Z</time></trkpt><trkpt lat="51.7676188610" lon="-2.3674065247"><ele>9.27</ele><time>2015-12-09T11:59:30Z</time></trkpt><trkpt lat="51.7676649615" lon="-2.3674246296"><ele>8.79</ele><time>2015-12-09T11:59:36Z</time></trkpt><trkpt lat="51.7677611019" lon="-2.3676280584"><ele>9.27</ele><time>2015-12-09T11:59:52Z</time></trkpt><trkpt lat="51.7678275704" lon="-2.3678335827"><ele>9.27</ele><time>2015-12-09T12:00:05Z</time></trkpt><trkpt lat="51.7678854894" lon="-2.3679539468"><ele>8.79</ele><time>2015-12-09T12:00:19Z</time></trkpt><trkpt lat="51.7678919435" lon="-2.3679615743"><ele>8.31</ele><time>2015-12-09T12:00:20Z</time></trkpt><trkpt lat="51.7679053545" lon="-2.3679762427"><ele>8.79</ele><time>2015-12-09T12:00:22Z</time></trkpt><trkpt lat="51.7679382954" lon="-2.3681131192"><ele>9.75</ele><time>2015-12-09T12:00:40Z</time></trkpt><trkpt lat="51.7680583242" lon="-2.3682508338"><ele>9.75</ele><time>2015-12-09T12:00:59Z</time></trkpt><trkpt lat="51.7681480106" lon="-2.3684102576"><ele>8.79</ele><time>2015-12-09T12:01:18Z</time></trkpt><trkpt lat="51.7682946101" lon="-2.3686304502"><ele>9.27</ele><time>2015-12-09T12:01:37Z</time></trkpt><trkpt lat="51.7683981266" lon="-2.3687787261"><ele>8.79</ele><time>2015-12-09T12:01:55Z</time></trkpt><trkpt lat="51.7684494238" lon="-2.3688539956"><ele>8.31</ele><time>2015-12-09T12:02:14Z</time></trkpt><trkpt lat="51.7684801016" lon="-2.3688729387"><ele>8.31</ele><time>2015-12-09T12:02:32Z</time></trkpt><trkpt lat="51.7684961949" lon="-2.3688876070"><ele>8.79</ele><time>2015-12-09T12:02:55Z</time></trkpt><trkpt lat="51.7684992123" lon="-2.3689005151"><ele>8.79</ele><time>2015-12-09T12:03:06Z</time></trkpt><trkpt lat="51.7685010564" lon="-2.3689089809"><ele>8.79</ele><time>2015-12-09T12:03:07Z</time></trkpt><trkpt lat="51.7685584724" lon="-2.3689746112"><ele>8.31</ele><time>2015-12-09T12:03:21Z</time></trkpt><trkpt lat="51.7685951851" lon="-2.3690146767"><ele>8.31</ele><time>2015-12-09T12:03:33Z</time></trkpt><trkpt lat="51.7686972767" lon="-2.3691349570"><ele>9.27</ele><time>2015-12-09T12:03:43Z</time></trkpt><trkpt lat="51.7687200755" lon="-2.3691694904"><ele>8.79</ele><time>2015-12-09T12:03:45Z</time></trkpt><trkpt lat="51.7687486578" lon="-2.3691906966"><ele>8.31</ele><time>2015-12-09T12:03:48Z</time></trkpt><trkpt lat="51.7688941676" lon="-2.3693373799"><ele>9.27</ele><time>2015-12-09T12:04:03Z</time></trkpt><trkpt lat="51.7689192295" lon="-2.3693708237"><ele>9.27</ele><time>2015-12-09T12:04:06Z</time></trkpt><trkpt lat="51.7690432817" lon="-2.3695084546"><ele>8.79</ele><time>2015-12-09T12:04:21Z</time></trkpt><trkpt lat="51.7690930702" lon="-2.3695565667"><ele>9.27</ele><time>2015-12-09T12:04:27Z</time></trkpt><trkpt lat="51.7691347282" lon="-2.3696232866"><ele>9.75</ele><time>2015-12-09T12:04:33Z</time></trkpt><trkpt lat="51.7692462914" lon="-2.3697668687"><ele>8.79</ele><time>2015-12-09T12:04:48Z</time></trkpt><trkpt lat="51.7692965828" lon="-2.3698019888"><ele>8.31</ele><time>2015-12-09T12:05:03Z</time></trkpt><trkpt lat="51.7693046294" lon="-2.3698396236"><ele>8.79</ele><time>2015-12-09T12:05:26Z</time></trkpt><trkpt lat="51.7692881171" lon="-2.3700133804"><ele>9.27</ele><time>2015-12-09T12:05:41Z</time></trkpt><trkpt lat="51.7691659927" lon="-2.3701294698"><ele>7.83</ele><time>2015-12-09T12:05:57Z</time></trkpt><trkpt lat="51.7691581976" lon="-2.3701407854"><ele>8.31</ele><time>2015-12-09T12:05:58Z</time></trkpt><trkpt lat="51.7690323852" lon="-2.3702971917"><ele>9.75</ele><time>2015-12-09T12:06:14Z</time></trkpt><trkpt lat="51.7689413577" lon="-2.3704450484"><ele>7.35</ele><time>2015-12-09T12:06:28Z</time></trkpt><trkpt lat="51.7689005379" lon="-2.3705774825"><ele>8.31</ele><time>2015-12-09T12:06:39Z</time></trkpt><trkpt lat="51.7688547727" lon="-2.3708226532"><ele>8.79</ele><time>2015-12-09T12:06:57Z</time></trkpt><trkpt lat="51.7688404396" lon="-2.3710285127"><ele>9.27</ele><time>2015-12-09T12:07:11Z</time></trkpt><trkpt lat="51.7687873822" lon="-2.3713171855"><ele>7.83</ele><time>2015-12-09T12:07:30Z</time></trkpt><trkpt lat="51.7686463147" lon="-2.3714515474"><ele>8.31</ele><time>2015-12-09T12:07:47Z</time></trkpt><trkpt lat="51.7686042376" lon="-2.3715875018"><ele>8.79</ele><time>2015-12-09T12:07:58Z</time></trkpt><trkpt lat="51.7685815226" lon="-2.3717506137"><ele>6.39</ele><time>2015-12-09T12:08:07Z</time></trkpt><trkpt lat="51.7685220949" lon="-2.3719789367"><ele>7.35</ele><time>2015-12-09T12:08:25Z</time></trkpt><trkpt lat="51.7684329953" lon="-2.3722413741"><ele>7.35</ele><time>2015-12-09T12:08:43Z</time></trkpt><trkpt lat="51.7683803570" lon="-2.3724443838"><ele>8.31</ele><time>2015-12-09T12:08:58Z</time></trkpt><trkpt lat="51.7683877330" lon="-2.3724442162"><ele>8.79</ele><time>2015-12-09T12:09:15Z</time></trkpt><trkpt lat="51.7684101127" lon="-2.3724358343"><ele>7.83</ele><time>2015-12-09T12:09:41Z</time></trkpt><trkpt lat="51.7684177402" lon="-2.3724340741"><ele>8.79</ele><time>2015-12-09T12:10:08Z</time></trkpt><trkpt lat="51.7684202548" lon="-2.3724131193"><ele>8.79</ele><time>2015-12-09T12:10:31Z</time></trkpt><trkpt lat="51.7684283014" lon="-2.3724250216"><ele>8.31</ele><time>2015-12-09T12:10:57Z</time></trkpt><trkpt lat="51.7684341688" lon="-2.3724323139"><ele>7.83</ele><time>2015-12-09T12:11:20Z</time></trkpt><trkpt lat="51.7685127072" lon="-2.3724218365"><ele>7.83</ele><time>2015-12-09T12:11:40Z</time></trkpt><trkpt lat="51.7685868870" lon="-2.3723766580"><ele>9.27</ele><time>2015-12-09T12:11:57Z</time></trkpt><trkpt lat="51.7686794233" lon="-2.3723401129"><ele>7.83</ele><time>2015-12-09T12:12:15Z</time></trkpt><trkpt lat="51.7687958479" lon="-2.3723212536"><ele>8.31</ele><time>2015-12-09T12:12:33Z</time></trkpt><trkpt lat="51.7688562814" lon="-2.3723336589"><ele>8.79</ele><time>2015-12-09T12:12:54Z</time></trkpt><trkpt lat="51.7689356580" lon="-2.3723228462"><ele>8.79</ele><time>2015-12-09T12:13:13Z</time></trkpt><trkpt lat="51.7689794116" lon="-2.3723641690"><ele>8.31</ele><time>2015-12-09T12:13:35Z</time></trkpt><trkpt lat="51.7691777274" lon="-2.3722923361"><ele>7.83</ele><time>2015-12-09T12:13:53Z</time></trkpt><trkpt lat="51.7692948226" lon="-2.3722578026"><ele>8.79</ele><time>2015-12-09T12:14:10Z</time></trkpt><trkpt lat="51.7694179527" lon="-2.3721568007"><ele>8.79</ele><time>2015-12-09T12:14:19Z</time></trkpt><trkpt lat="51.7695839982" lon="-2.3720796872"><ele>7.83</ele><time>2015-12-09T12:14:34Z</time></trkpt><trkpt lat="51.7696093954" lon="-2.3720884044"><ele>8.31</ele><time>2015-12-09T12:14:36Z</time></trkpt><trkpt lat="51.7698149197" lon="-2.3721081018"><ele>8.31</ele><time>2015-12-09T12:14:52Z</time></trkpt><trkpt lat="51.7700050212" lon="-2.3720708024"><ele>7.35</ele><time>2015-12-09T12:15:10Z</time></trkpt><trkpt lat="51.7702001520" lon="-2.3720180802"><ele>7.83</ele><time>2015-12-09T12:15:28Z</time></trkpt><trkpt lat="51.7703588214" lon="-2.3719932698"><ele>6.87</ele><time>2015-12-09T12:15:45Z</time></trkpt><trkpt lat="51.7704973742" lon="-2.3719790205"><ele>7.35</ele><time>2015-12-09T12:15:59Z</time></trkpt><trkpt lat="51.7705332488" lon="-2.3719842173"><ele>6.87</ele><time>2015-12-09T12:16:12Z</time></trkpt><trkpt lat="51.7705431394" lon="-2.3719901685"><ele>7.35</ele><time>2015-12-09T12:16:27Z</time></trkpt><trkpt lat="51.7705552932" lon="-2.3719784338"><ele>7.35</ele><time>2015-12-09T12:16:42Z</time></trkpt><trkpt lat="51.7705764994" lon="-2.3719550483"><ele>6.87</ele><time>2015-12-09T12:16:53Z</time></trkpt><trkpt lat="51.7708381824" lon="-2.3719029129"><ele>6.87</ele><time>2015-12-09T12:17:10Z</time></trkpt><trkpt lat="51.7710307147" lon="-2.3718653619"><ele>7.35</ele><time>2015-12-09T12:17:27Z</time></trkpt><trkpt lat="51.7712038010" lon="-2.3717759270"><ele>7.35</ele><time>2015-12-09T12:17:44Z</time></trkpt><trkpt lat="51.7713845149" lon="-2.3716809601"><ele>7.35</ele><time>2015-12-09T12:18:02Z</time></trkpt><trkpt lat="51.7715559248" lon="-2.3716404755"><ele>7.35</ele><time>2015-12-09T12:18:19Z</time></trkpt><trkpt lat="51.7717724293" lon="-2.3715309240"><ele>6.87</ele><time>2015-12-09T12:18:40Z</time></trkpt><trkpt lat="51.7718223855" lon="-2.3715103045"><ele>6.87</ele><time>2015-12-09T12:18:45Z</time></trkpt><trkpt lat="51.7719802167" lon="-2.3713960592"><ele>6.87</ele><time>2015-12-09T12:19:02Z</time></trkpt><trkpt lat="51.7721006647" lon="-2.3712674808"><ele>6.87</ele><time>2015-12-09T12:19:21Z</time></trkpt><trkpt lat="51.7722760141" lon="-2.3710954841"><ele>5.91</ele><time>2015-12-09T12:19:38Z</time></trkpt><trkpt lat="51.7723861523" lon="-2.3709526565"><ele>5.42</ele><time>2015-12-09T12:19:54Z</time></trkpt><trkpt lat="51.7724242900" lon="-2.3709094897"><ele>4.94</ele><time>2015-12-09T12:20:08Z</time></trkpt><trkpt lat="51.7724565603" lon="-2.3708617967"><ele>4.94</ele><time>2015-12-09T12:20:12Z</time></trkpt><trkpt lat="51.7726175766" lon="-2.3706653249"><ele>5.42</ele><time>2015-12-09T12:20:30Z</time></trkpt><trkpt lat="51.7727384437" lon="-2.3705995269"><ele>4.94</ele><time>2015-12-09T12:20:40Z</time></trkpt><trkpt lat="51.7728517670" lon="-2.3704389296"><ele>4.94</ele><time>2015-12-09T12:20:55Z</time></trkpt><trkpt lat="51.7728617415" lon="-2.3704323079"><ele>4.94</ele><time>2015-12-09T12:20:56Z</time></trkpt><trkpt lat="51.7728926707" lon="-2.3703954276"><ele>4.94</ele><time>2015-12-09T12:21:00Z</time></trkpt><trkpt lat="51.7730127834" lon="-2.3702430446"><ele>4.94</ele><time>2015-12-09T12:21:16Z</time></trkpt><trkpt lat="51.7730287928" lon="-2.3702408653"><ele>4.46</ele><time>2015-12-09T12:21:18Z</time></trkpt><trkpt lat="51.7731141206" lon="-2.3702823557"><ele>5.91</ele><time>2015-12-09T12:21:31Z</time></trkpt><trkpt lat="51.7731473967" lon="-2.3703196552"><ele>5.91</ele><time>2015-12-09T12:21:43Z</time></trkpt><trkpt lat="51.7732628994" lon="-2.3702069186"><ele>5.91</ele><time>2015-12-09T12:21:57Z</time></trkpt><trkpt lat="51.7733353190" lon="-2.3700931761"><ele>6.87</ele><time>2015-12-09T12:22:08Z</time></trkpt><trkpt lat="51.7733737919" lon="-2.3700391129"><ele>5.42</ele><time>2015-12-09T12:22:22Z</time></trkpt><trkpt lat="51.7733841017" lon="-2.3700278811"><ele>5.42</ele><time>2015-12-09T12:22:23Z</time></trkpt><trkpt lat="51.7734037992" lon="-2.3699977063"><ele>5.42</ele><time>2015-12-09T12:22:25Z</time></trkpt><trkpt lat="51.7734522466" lon="-2.3699411284"><ele>5.91</ele><time>2015-12-09T12:22:30Z</time></trkpt><trkpt lat="51.7734755483" lon="-2.3699171562"><ele>5.91</ele><time>2015-12-09T12:22:32Z</time></trkpt><trkpt lat="51.7735891230" lon="-2.3697335087"><ele>5.91</ele><time>2015-12-09T12:22:46Z</time></trkpt><trkpt lat="51.7737239040" lon="-2.3695543036"><ele>5.42</ele><time>2015-12-09T12:23:01Z</time></trkpt><trkpt lat="51.7737373151" lon="-2.3695329297"><ele>5.42</ele><time>2015-12-09T12:23:03Z</time></trkpt><trkpt lat="51.7737720162" lon="-2.3694766872"><ele>5.42</ele><time>2015-12-09T12:23:07Z</time></trkpt><trkpt lat="51.7738528177" lon="-2.3692743480"><ele>5.91</ele><time>2015-12-09T12:23:22Z</time></trkpt><trkpt lat="51.7739606090" lon="-2.3690369725"><ele>5.42</ele><time>2015-12-09T12:23:38Z</time></trkpt><trkpt lat="51.7739888560" lon="-2.3690303508"><ele>5.42</ele><time>2015-12-09T12:23:50Z</time></trkpt><trkpt lat="51.7740342021" lon="-2.3688527383"><ele>5.91</ele><time>2015-12-09T12:24:05Z</time></trkpt><trkpt lat="51.7740333639" lon="-2.3688374832"><ele>5.91</ele><time>2015-12-09T12:24:06Z</time></trkpt><trkpt lat="51.7740305979" lon="-2.3687403370"><ele>6.39</ele><time>2015-12-09T12:24:12Z</time></trkpt><trkpt lat="51.7740564141" lon="-2.3686682526"><ele>6.87</ele><time>2015-12-09T12:24:25Z</time></trkpt><trkpt lat="51.7740614433" lon="-2.3686514888"><ele>6.39</ele><time>2015-12-09T12:24:33Z</time></trkpt><trkpt lat="51.7740587611" lon="-2.3685437813"><ele>5.91</ele><time>2015-12-09T12:24:49Z</time></trkpt><trkpt lat="51.7740441766" lon="-2.3684390076"><ele>4.94</ele><time>2015-12-09T12:24:57Z</time></trkpt><trkpt lat="51.7740446795" lon="-2.3683613073"><ele>4.46</ele><time>2015-12-09T12:25:00Z</time></trkpt><trkpt lat="51.7740413267" lon="-2.3681251891"><ele>3.98</ele><time>2015-12-09T12:25:15Z</time></trkpt><trkpt lat="51.7740342021" lon="-2.3680881411"><ele>3.02</ele><time>2015-12-09T12:25:18Z</time></trkpt><trkpt lat="51.7740241438" lon="-2.3680548649"><ele>3.50</ele><time>2015-12-09T12:25:20Z</time></trkpt><trkpt lat="51.7739559989" lon="-2.3678416293"><ele>3.98</ele><time>2015-12-09T12:25:37Z</time></trkpt><trkpt lat="51.7739479523" lon="-2.3678164836"><ele>3.02</ele><time>2015-12-09T12:25:41Z</time></trkpt><trkpt lat="51.7738337908" lon="-2.3675453290"><ele>3.98</ele><time>2015-12-09T12:25:58Z</time></trkpt><trkpt lat="51.7738102376" lon="-2.3674813751"><ele>3.98</ele><time>2015-12-09T12:26:02Z</time></trkpt><trkpt lat="51.7737155221" lon="-2.3671966419"><ele>4.94</ele><time>2015-12-09T12:26:18Z</time></trkpt><trkpt lat="51.7736286018" lon="-2.3669717554"><ele>4.46</ele><time>2015-12-09T12:26:32Z</time></trkpt><trkpt lat="51.7735109199" lon="-2.3667143472"><ele>4.46</ele><time>2015-12-09T12:26:50Z</time></trkpt><trkpt lat="51.7734366562" lon="-2.3664550949"><ele>4.46</ele><time>2015-12-09T12:27:09Z</time></trkpt><trkpt lat="51.7733582016" lon="-2.3662315495"><ele>3.98</ele><time>2015-12-09T12:27:24Z</time></trkpt><trkpt lat="51.7732706107" lon="-2.3659733031"><ele>4.94</ele><time>2015-12-09T12:27:40Z</time></trkpt><trkpt lat="51.7731984425" lon="-2.3657503445"><ele>4.94</ele><time>2015-12-09T12:27:55Z</time></trkpt><trkpt lat="51.7731459718" lon="-2.3655936029"><ele>3.98</ele><time>2015-12-09T12:28:06Z</time></trkpt><trkpt lat="51.7730525136" lon="-2.3654094525"><ele>4.46</ele><time>2015-12-09T12:28:22Z</time></trkpt><trkpt lat="51.7729500867" lon="-2.3651841469"><ele>3.50</ele><time>2015-12-09T12:28:40Z</time></trkpt><trkpt lat="51.7729257792" lon="-2.3651303351"><ele>4.94</ele><time>2015-12-09T12:28:44Z</time></trkpt><trkpt lat="51.7728223465" lon="-2.3648937978"><ele>3.98</ele><time>2015-12-09T12:28:59Z</time></trkpt><trkpt lat="51.7727243621" lon="-2.3646691628"><ele>3.50</ele><time>2015-12-09T12:29:14Z</time></trkpt><trkpt lat="51.7726398725" lon="-2.3644874431"><ele>4.94</ele><time>2015-12-09T12:29:28Z</time></trkpt><trkpt lat="51.7725750804" lon="-2.3643581942"><ele>4.46</ele><time>2015-12-09T12:29:39Z</time></trkpt><trkpt lat="51.7725127190" lon="-2.3643499799"><ele>4.94</ele><time>2015-12-09T12:29:52Z</time></trkpt><trkpt lat="51.7725129705" lon="-2.3643474653"><ele>4.94</ele><time>2015-12-09T12:30:01Z</time></trkpt><trkpt lat="51.7724876571" lon="-2.3643286899"><ele>4.94</ele><time>2015-12-09T12:30:04Z</time></trkpt><trkpt lat="51.7723807041" lon="-2.3641844373"><ele>4.94</ele><time>2015-12-09T12:30:19Z</time></trkpt><trkpt lat="51.7723612580" lon="-2.3641747143"><ele>4.94</ele><time>2015-12-09T12:30:21Z</time></trkpt><trkpt lat="51.7721996550" lon="-2.3643078189"><ele>5.42</ele><time>2015-12-09T12:30:37Z</time></trkpt><trkpt lat="51.7721301690" lon="-2.3643444479"><ele>4.46</ele><time>2015-12-09T12:30:45Z</time></trkpt><trkpt lat="51.7721081246" lon="-2.3643478006"><ele>4.94</ele><time>2015-12-09T12:30:47Z</time></trkpt><trkpt lat="51.7719509639" lon="-2.3643503152"><ele>4.94</ele><time>2015-12-09T12:31:03Z</time></trkpt><trkpt lat="51.7719005886" lon="-2.3643035442"><ele>4.46</ele><time>2015-12-09T12:31:10Z</time></trkpt><trkpt lat="51.7718765326" lon="-2.3642085772"><ele>5.42</ele><time>2015-12-09T12:31:22Z</time></trkpt><trkpt lat="51.7718640435" lon="-2.3641746305"><ele>4.94</ele><time>2015-12-09T12:31:36Z</time></trkpt><trkpt lat="51.7718640435" lon="-2.3641652428"><ele>5.42</ele><time>2015-12-09T12:31:48Z</time></trkpt></trkseg></trk></gpx>